createdAt,value
2022-10-22T00:00:33.383Z,100.00
2022-10-22T00:01:34.811Z,100.00
2022-10-22T00:02:36.380Z,100.00
2022-10-22T00:03:37.883Z,100.00
2022-10-22T00:04:39.510Z,100.00
2022-10-22T00:05:40.925Z,100.00
2022-10-22T00:06:42.458Z,100.00
2022-10-22T00:07:43.983Z,100.00
2022-10-22T00:08:45.523Z,100.00
2022-10-22T00:09:47.169Z,100.00
2022-10-22T00:10:48.902Z,100.00
2022-10-22T00:11:50.320Z,100.00
2022-10-22T00:12:51.714Z,100.00
2022-10-22T00:13:53.158Z,100.00
2022-10-22T00:14:54.583Z,100.00
2022-10-22T00:15:56.050Z,100.00
2022-10-22T00:16:57.471Z,100.00
2022-10-22T00:17:58.853Z,100.00
2022-10-22T00:19:00.275Z,100.00
2022-10-22T00:20:01.710Z,100.00
2022-10-22T00:21:03.618Z,100.00
2022-10-22T00:22:05.021Z,100.00
2022-10-22T00:23:06.453Z,100.00
2022-10-22T00:24:07.885Z,100.00
2022-10-22T00:25:09.782Z,100.00
2022-10-22T00:26:11.480Z,100.00
2022-10-22T00:27:13.515Z,100.00
2022-10-22T00:28:15.989Z,100.00
2022-10-22T00:29:17.398Z,100.00
2022-10-22T00:30:19.073Z,100.00
2022-10-22T00:31:20.473Z,100.00
2022-10-22T00:32:21.881Z,100.00
2022-10-22T00:33:23.383Z,100.00
2022-10-22T00:34:24.926Z,100.00
2022-10-22T00:35:26.340Z,100.00
2022-10-22T00:36:27.798Z,100.00
2022-10-22T00:37:29.179Z,100.00
2022-10-22T00:38:30.579Z,100.00
2022-10-22T00:39:31.968Z,100.00
2022-10-22T00:40:33.379Z,100.00
2022-10-22T00:41:34.780Z,100.00
2022-10-22T00:42:36.159Z,100.00
2022-10-22T00:43:57.890Z,100.00
2022-10-22T00:45:15.589Z,100.00
2022-10-22T00:46:17.023Z,100.00
2022-10-22T00:47:18.645Z,100.00
2022-10-22T00:48:22.485Z,100.00
2022-10-22T00:49:24.127Z,100.00
2022-10-22T00:50:31.915Z,100.00
2022-10-22T00:51:34.529Z,100.00
2022-10-22T00:52:36.456Z,100.00
2022-10-22T00:53:41.451Z,100.00
2022-10-22T00:54:43.033Z,100.00
2022-10-22T00:55:46.267Z,100.00
2022-10-22T00:56:47.717Z,100.00
2022-10-22T00:57:49.138Z,100.00
2022-10-22T00:58:53.688Z,100.00
2022-10-22T00:59:55.866Z,100.00
2022-10-22T01:00:57.701Z,100.00
2022-10-22T01:01:59.394Z,100.00
2022-10-22T01:03:01.045Z,100.00
2022-10-22T01:04:02.462Z,100.00
2022-10-22T01:05:04.386Z,100.00
2022-10-22T01:06:06.061Z,100.00
2022-10-22T01:07:10.512Z,100.00
2022-10-22T01:08:18.214Z,100.00
2022-10-22T01:09:31.509Z,100.00
2022-10-22T01:10:41.735Z,100.00
2022-10-22T01:11:51.441Z,100.00
2022-10-22T01:13:25.332Z,100.00
2022-10-22T01:14:52.012Z,100.00
2022-10-22T01:16:11.393Z,100.00
2022-10-22T01:17:23.067Z,100.00
2022-10-22T01:18:29.038Z,100.00
2022-10-22T01:19:36.583Z,100.00
2022-10-22T01:20:46.893Z,100.00
2022-10-22T01:21:53.071Z,100.00
2022-10-22T01:23:09.843Z,100.00
2022-10-22T01:24:29.694Z,100.00
2022-10-22T01:25:34.176Z,100.00
2022-10-22T01:26:41.718Z,100.00
2022-10-22T01:27:51.957Z,100.00
2022-10-22T01:28:56.479Z,100.00
2022-10-22T01:30:07.819Z,100.00
2022-10-22T01:31:09.875Z,100.00
2022-10-22T01:32:14.265Z,100.00
2022-10-22T01:33:17.774Z,100.00
2022-10-22T01:34:20.175Z,100.00
2022-10-22T01:35:29.737Z,100.00
2022-10-22T01:36:32.647Z,100.00
2022-10-22T01:37:37.749Z,100.00
2022-10-22T01:38:39.899Z,100.00
2022-10-22T01:39:43.612Z,100.00
2022-10-22T01:40:46.023Z,100.00
2022-10-22T01:41:47.941Z,100.00
2022-10-22T01:42:56.267Z,100.00
2022-10-22T01:43:57.698Z,100.00
2022-10-22T01:44:59.104Z,100.00
2022-10-22T01:46:02.382Z,100.00
2022-10-22T01:47:06.899Z,100.00
2022-10-22T01:48:14.494Z,100.00
2022-10-22T01:49:22.405Z,100.00
2022-10-22T01:50:26.547Z,100.00
2022-10-22T01:51:33.832Z,100.00
2022-10-22T01:53:01.546Z,100.00
2022-10-22T01:54:02.919Z,100.00
2022-10-22T01:55:19.720Z,100.00
2022-10-22T01:56:21.089Z,100.00
2022-10-22T01:57:33.756Z,100.00
2022-10-22T01:58:41.166Z,100.00
2022-10-22T02:00:01.853Z,100.00
2022-10-22T02:01:18.425Z,100.00
2022-10-22T02:02:29.143Z,100.00
2022-10-22T02:03:38.380Z,100.00
2022-10-22T02:04:51.772Z,100.00
2022-10-22T02:05:58.682Z,100.00
2022-10-22T02:07:02.367Z,100.00
2022-10-22T02:08:10.892Z,100.00
2022-10-22T02:09:14.172Z,100.00
2022-10-22T02:10:17.383Z,100.00
2022-10-22T02:11:18.791Z,100.00
2022-10-22T02:12:21.924Z,100.00
2022-10-22T02:13:26.453Z,100.00
2022-10-22T02:14:30.101Z,100.00
2022-10-22T02:15:33.139Z,100.00
2022-10-22T02:16:36.314Z,100.00
2022-10-22T02:17:38.979Z,100.00
2022-10-22T02:18:42.836Z,100.00
2022-10-22T02:19:44.210Z,100.00
2022-10-22T02:20:45.677Z,100.00
2022-10-22T02:21:47.093Z,100.00
2022-10-22T02:22:49.542Z,100.00
2022-10-22T02:23:50.961Z,100.00
2022-10-22T02:24:52.499Z,100.00
2022-10-22T02:25:59.991Z,100.00
2022-10-22T02:27:17.748Z,100.00
2022-10-22T02:28:23.703Z,100.00
2022-10-22T02:29:27.636Z,100.00
2022-10-22T02:30:30.179Z,100.00
2022-10-22T02:31:33.834Z,100.00
2022-10-22T02:32:49.855Z,100.00
2022-10-22T02:33:53.239Z,100.00
2022-10-22T02:34:55.765Z,100.00
2022-10-22T02:35:58.341Z,100.00
2022-10-22T02:37:00.913Z,100.00
2022-10-22T02:38:03.307Z,100.00
2022-10-22T02:39:06.606Z,100.00
2022-10-22T02:40:08.716Z,100.00
2022-10-22T02:41:10.369Z,100.00
2022-10-22T02:42:12.001Z,100.00
2022-10-22T02:43:13.396Z,100.00
2022-10-22T02:44:14.805Z,100.00
2022-10-22T02:45:16.641Z,100.00
2022-10-22T02:46:18.087Z,100.00
2022-10-22T02:47:19.596Z,100.00
2022-10-22T02:49:27.464Z,100.00
2022-10-22T02:50:28.865Z,100.00
2022-10-22T02:51:30.292Z,100.00
2022-10-22T02:52:31.687Z,100.00
2022-10-22T02:53:33.253Z,100.00
2022-10-22T02:54:34.641Z,100.00
2022-10-22T02:55:36.096Z,100.00
2022-10-22T02:56:37.486Z,100.00
2022-10-22T02:57:39.290Z,100.00
2022-10-22T02:58:40.859Z,100.00
2022-10-22T02:59:42.244Z,100.00
2022-10-22T03:00:43.706Z,100.00
2022-10-22T03:01:45.175Z,100.00
2022-10-22T03:02:46.563Z,100.00
2022-10-22T03:03:48.193Z,100.00
2022-10-22T03:04:49.589Z,100.00
2022-10-22T03:05:51.234Z,100.00
2022-10-22T03:06:52.655Z,100.00
2022-10-22T03:07:54.039Z,100.00
2022-10-22T03:08:55.539Z,100.00
2022-10-22T03:09:56.937Z,100.00
2022-10-22T03:10:58.353Z,100.00
2022-10-22T03:11:59.739Z,100.00
2022-10-22T03:13:01.147Z,100.00
2022-10-22T03:14:02.538Z,100.00
2022-10-22T03:15:04.327Z,100.00
2022-10-22T03:16:05.973Z,100.00
2022-10-22T03:17:07.321Z,100.00
2022-10-22T03:18:08.742Z,100.00
2022-10-22T03:19:10.169Z,100.00
2022-10-22T03:20:11.573Z,100.00
2022-10-22T03:21:31.724Z,100.00
2022-10-22T03:22:34.604Z,100.00
2022-10-22T03:23:36.990Z,100.00
2022-10-22T03:24:39.936Z,100.00
2022-10-22T03:25:43.363Z,100.00
2022-10-22T03:26:45.874Z,100.00
2022-10-22T03:27:47.586Z,100.00
2022-10-22T03:28:48.997Z,100.00
2022-10-22T03:29:51.689Z,100.00
2022-10-22T03:30:53.100Z,100.00
2022-10-22T03:31:54.928Z,100.00
2022-10-22T03:32:56.425Z,100.00
2022-10-22T03:33:57.841Z,100.00
2022-10-22T03:36:02.005Z,100.00
2022-10-22T03:37:03.423Z,100.00
2022-10-22T03:38:04.825Z,100.00
2022-10-22T03:39:06.666Z,100.00
2022-10-22T03:40:08.624Z,100.00
2022-10-22T03:41:10.433Z,100.00
2022-10-22T03:42:12.108Z,100.00
2022-10-22T03:43:13.577Z,100.00
2022-10-22T03:44:16.105Z,100.00
2022-10-22T03:45:17.568Z,100.00
2022-10-22T03:46:19.163Z,100.00
2022-10-22T03:47:20.576Z,100.00
2022-10-22T03:48:21.991Z,100.00
2022-10-22T03:49:23.404Z,100.00
2022-10-22T03:50:24.812Z,100.00
2022-10-22T03:51:26.992Z,100.00
2022-10-22T03:52:28.408Z,100.00
2022-10-22T03:53:29.808Z,100.00
2022-10-22T03:54:31.218Z,100.00
2022-10-22T03:55:32.681Z,100.00
2022-10-22T03:56:34.158Z,100.00
2022-10-22T03:57:35.592Z,100.00
2022-10-22T03:58:37.504Z,100.00
2022-10-22T03:59:40.578Z,100.00
2022-10-22T04:00:42.052Z,100.00
2022-10-22T04:01:43.469Z,100.00
2022-10-22T04:02:44.863Z,100.00
2022-10-22T04:03:46.251Z,100.00
2022-10-22T04:04:47.639Z,100.00
2022-10-22T04:05:49.031Z,100.00
2022-10-22T04:06:50.410Z,100.00
2022-10-22T04:07:51.826Z,100.00
2022-10-22T04:08:53.266Z,100.00
2022-10-22T04:09:54.678Z,100.00
2022-10-22T04:10:56.077Z,100.00
2022-10-22T04:11:57.479Z,100.00
2022-10-22T04:12:59.047Z,100.00
2022-10-22T04:14:00.480Z,100.00
2022-10-22T04:15:01.890Z,100.00
2022-10-22T04:16:10.560Z,100.00
2022-10-22T04:17:11.969Z,100.00
2022-10-22T04:18:13.465Z,100.00
2022-10-22T04:19:14.866Z,100.00
2022-10-22T04:20:16.285Z,100.00
2022-10-22T04:21:19.071Z,100.00
2022-10-22T04:22:20.462Z,100.00
2022-10-22T04:23:21.997Z,100.00
2022-10-22T04:24:23.440Z,100.00
2022-10-22T04:25:24.911Z,100.00
2022-10-22T04:26:26.490Z,100.00
2022-10-22T04:27:31.511Z,100.00
2022-10-22T04:28:33.343Z,100.00
2022-10-22T04:29:34.729Z,100.00
2022-10-22T04:30:36.549Z,100.00
2022-10-22T04:31:37.936Z,100.00
2022-10-22T04:32:39.335Z,100.00
2022-10-22T04:33:41.148Z,100.00
2022-10-22T04:34:42.550Z,100.00
2022-10-22T04:35:43.992Z,100.00
2022-10-22T04:36:45.427Z,100.00
2022-10-22T04:37:46.864Z,100.00
2022-10-22T04:38:51.859Z,100.00
2022-10-22T04:39:53.235Z,100.00
2022-10-22T04:40:54.627Z,100.00
2022-10-22T04:41:56.172Z,100.00
2022-10-22T04:42:57.584Z,100.00
2022-10-22T04:43:59.423Z,100.00
2022-10-22T04:45:00.854Z,100.00
2022-10-22T04:46:02.248Z,100.00
2022-10-22T04:47:03.816Z,100.00
2022-10-22T04:48:05.394Z,100.00
2022-10-22T04:49:06.783Z,100.00
2022-10-22T04:50:08.269Z,100.00
2022-10-22T04:51:11.289Z,100.00
2022-10-22T04:52:12.701Z,100.00
2022-10-22T04:53:14.093Z,100.00
2022-10-22T04:54:15.535Z,100.00
2022-10-22T04:55:17.030Z,100.00
2022-10-22T04:56:22.973Z,100.00
2022-10-22T04:57:24.354Z,100.00
2022-10-22T04:58:25.744Z,100.00
2022-10-22T04:59:27.153Z,100.00
2022-10-22T05:00:28.551Z,100.00
2022-10-22T05:01:37.004Z,100.00
2022-10-22T05:02:41.553Z,100.00
2022-10-22T05:03:43.984Z,100.00
2022-10-22T05:04:45.383Z,100.00
2022-10-22T05:05:46.783Z,100.00
2022-10-22T05:06:48.193Z,100.00
2022-10-22T05:07:51.171Z,100.00
2022-10-22T05:08:53.777Z,100.00
2022-10-22T05:09:55.232Z,100.00
2022-10-22T05:10:56.634Z,100.00
2022-10-22T05:11:58.035Z,100.00
2022-10-22T05:12:59.422Z,100.00
2022-10-22T05:14:01.865Z,100.00
2022-10-22T05:15:03.394Z,100.00
2022-10-22T05:16:04.931Z,100.00
2022-10-22T05:17:06.324Z,100.00
2022-10-22T05:18:07.729Z,100.00
2022-10-22T05:19:14.314Z,100.00
2022-10-22T05:20:15.772Z,100.00
2022-10-22T05:21:18.395Z,100.00
2022-10-22T05:22:19.826Z,100.00
2022-10-22T05:23:21.224Z,100.00
2022-10-22T05:24:22.664Z,100.00
2022-10-22T05:25:24.086Z,100.00
2022-10-22T05:26:26.373Z,100.00
2022-10-22T05:27:27.754Z,100.00
2022-10-22T05:28:29.230Z,100.00
2022-10-22T05:29:30.627Z,100.00
2022-10-22T05:30:32.064Z,100.00
2022-10-22T05:31:33.584Z,100.00
2022-10-22T05:32:35.423Z,100.00
2022-10-22T05:33:36.823Z,100.00
2022-10-22T05:34:38.229Z,100.00
2022-10-22T05:35:39.612Z,100.00
2022-10-22T05:36:41.343Z,100.00
2022-10-22T05:37:43.053Z,100.00
2022-10-22T05:38:44.747Z,100.00
2022-10-22T05:39:46.138Z,100.00
2022-10-22T05:40:47.748Z,100.00
2022-10-22T05:41:49.202Z,100.00
2022-10-22T05:42:50.596Z,100.00
2022-10-22T05:43:54.162Z,100.00
2022-10-22T05:44:55.603Z,100.00
2022-10-22T05:46:00.943Z,100.00
2022-10-22T05:47:02.323Z,100.00
2022-10-22T05:48:03.987Z,100.00
2022-10-22T05:49:06.424Z,100.00
2022-10-22T05:50:08.006Z,100.00
2022-10-22T05:51:10.717Z,100.00
2022-10-22T05:52:12.108Z,100.00
2022-10-22T05:53:13.535Z,100.00
2022-10-22T05:54:18.770Z,100.00
2022-10-22T05:55:20.197Z,100.00
2022-10-22T05:56:22.231Z,100.00
2022-10-22T05:57:23.627Z,100.00
2022-10-22T05:58:25.026Z,100.00
2022-10-22T05:59:26.422Z,100.00
2022-10-22T06:00:27.813Z,99.96
2022-10-22T06:01:30.184Z,98.89
2022-10-22T06:02:31.615Z,97.37
2022-10-22T06:03:33.216Z,96.30
2022-10-22T06:04:34.622Z,94.09
2022-10-22T06:05:36.626Z,92.91
2022-10-22T06:06:39.767Z,92.91
2022-10-22T06:07:41.560Z,93.17
2022-10-22T06:08:43.008Z,92.96
2022-10-22T06:09:44.438Z,92.98
2022-10-22T06:10:45.940Z,92.84
2022-10-22T06:11:47.835Z,93.38
2022-10-22T06:12:49.522Z,94.20
2022-10-22T06:13:51.433Z,95.08
2022-10-22T06:14:52.892Z,95.37
2022-10-22T06:15:54.358Z,96.10
2022-10-22T06:16:55.750Z,97.00
2022-10-22T06:17:57.189Z,97.59
2022-10-22T06:18:59.461Z,98.55
2022-10-22T06:20:00.959Z,99.21
2022-10-22T06:21:06.576Z,99.91
2022-10-22T06:22:08.014Z,100.00
2022-10-22T06:23:09.406Z,100.00
2022-10-22T06:24:10.962Z,100.00
2022-10-22T06:25:12.403Z,100.00
2022-10-22T06:26:13.813Z,100.00
2022-10-22T06:27:15.199Z,100.00
2022-10-22T06:28:16.660Z,100.00
2022-10-22T06:29:18.166Z,100.00
2022-10-22T06:30:19.568Z,100.00
2022-10-22T06:31:21.077Z,100.00
2022-10-22T06:32:22.475Z,100.00
2022-10-22T06:33:23.898Z,100.00
2022-10-22T06:34:25.393Z,100.00
2022-10-22T06:35:26.796Z,100.00
2022-10-22T06:36:28.225Z,100.00
2022-10-22T06:37:29.649Z,100.00
2022-10-22T06:38:31.014Z,100.00
2022-10-22T06:39:32.390Z,100.00
2022-10-22T06:40:33.977Z,100.00
2022-10-22T06:41:35.403Z,100.00
2022-10-22T06:42:36.809Z,100.00
2022-10-22T06:43:38.373Z,100.00
2022-10-22T06:44:39.781Z,100.00
2022-10-22T06:45:41.196Z,100.00
2022-10-22T06:46:43.562Z,100.00
2022-10-22T06:47:45.178Z,100.00
2022-10-22T06:48:53.934Z,100.00
2022-10-22T06:49:55.337Z,100.00
2022-10-22T06:51:00.845Z,100.00
2022-10-22T06:52:02.244Z,100.00
2022-10-22T06:53:03.686Z,100.00
2022-10-22T06:54:05.095Z,100.00
2022-10-22T06:55:06.587Z,100.00
2022-10-22T06:56:12.449Z,100.00
2022-10-22T06:57:13.847Z,100.00
2022-10-22T06:58:15.232Z,100.00
2022-10-22T06:59:16.654Z,100.00
2022-10-22T07:00:18.280Z,100.00
2022-10-22T07:01:21.599Z,100.00
2022-10-22T07:02:23.034Z,100.00
2022-10-22T07:03:24.418Z,100.00
2022-10-22T07:04:25.806Z,100.00
2022-10-22T07:05:27.237Z,100.00
2022-10-22T07:06:29.117Z,100.00
2022-10-22T07:07:30.520Z,100.00
2022-10-22T07:08:32.114Z,100.00
2022-10-22T07:09:33.532Z,100.00
2022-10-22T07:10:35.175Z,100.00
2022-10-22T07:11:44.311Z,100.00
2022-10-22T07:12:45.704Z,100.00
2022-10-22T07:13:47.798Z,100.00
2022-10-22T07:14:49.718Z,100.00
2022-10-22T07:15:54.847Z,100.00
2022-10-22T07:16:56.220Z,100.00
2022-10-22T07:17:57.632Z,100.00
2022-10-22T07:18:59.664Z,100.00
2022-10-22T07:20:01.049Z,100.00
2022-10-22T07:21:02.708Z,100.00
2022-10-22T07:22:04.082Z,100.00
2022-10-22T07:23:05.513Z,100.00
2022-10-22T07:24:07.020Z,100.00
2022-10-22T07:25:08.635Z,100.00
2022-10-22T07:26:11.643Z,100.00
2022-10-22T07:27:13.077Z,100.00
2022-10-22T07:28:14.459Z,100.00
2022-10-22T07:29:15.899Z,100.00
2022-10-22T07:30:17.325Z,100.00
2022-10-22T07:31:19.104Z,100.00
2022-10-22T07:32:23.707Z,100.00
2022-10-22T07:33:25.786Z,100.00
2022-10-22T07:34:27.222Z,100.00
2022-10-22T07:35:28.688Z,100.00
2022-10-22T07:36:30.092Z,100.00
2022-10-22T07:37:31.532Z,100.00
2022-10-22T07:38:33.012Z,100.00
2022-10-22T07:39:34.495Z,100.00
2022-10-22T07:40:36.144Z,100.00
2022-10-22T07:41:37.531Z,100.00
2022-10-22T07:42:39.394Z,100.00
2022-10-22T07:43:40.981Z,100.00
2022-10-22T07:44:42.444Z,100.00
2022-10-22T07:45:43.861Z,100.00
2022-10-22T07:46:48.158Z,100.00
2022-10-22T07:47:50.470Z,100.00
2022-10-22T07:48:52.199Z,100.00
2022-10-22T07:49:53.591Z,100.00
2022-10-22T07:50:55.254Z,100.00
2022-10-22T07:51:56.684Z,100.00
2022-10-22T07:52:58.458Z,100.00
2022-10-22T07:53:59.980Z,100.00
2022-10-22T07:55:01.417Z,100.00
2022-10-22T07:56:02.883Z,100.00
2022-10-22T07:57:04.288Z,100.00
2022-10-22T07:58:05.689Z,100.00
2022-10-22T07:59:07.145Z,100.00
2022-10-22T08:00:09.398Z,100.00
2022-10-22T08:01:13.430Z,100.00
2022-10-22T08:02:14.947Z,100.00
2022-10-22T08:03:16.999Z,100.00
2022-10-22T08:04:18.409Z,100.00
2022-10-22T08:05:19.855Z,100.00
2022-10-22T08:06:21.244Z,100.00
2022-10-22T08:07:22.992Z,100.00
2022-10-22T08:08:27.167Z,100.00
2022-10-22T08:09:31.691Z,100.00
2022-10-22T08:10:33.471Z,100.00
2022-10-22T08:11:34.859Z,100.00
2022-10-22T08:12:36.521Z,100.00
2022-10-22T08:13:42.761Z,100.00
2022-10-22T08:14:46.404Z,100.00
2022-10-22T08:15:49.702Z,100.00
2022-10-22T08:16:52.825Z,100.00
2022-10-22T08:17:54.241Z,100.00
2022-10-22T08:18:55.672Z,100.00
2022-10-22T08:19:57.088Z,100.00
2022-10-22T08:20:58.482Z,100.00
2022-10-22T08:21:59.889Z,100.00
2022-10-22T08:23:01.311Z,100.00
2022-10-22T08:24:02.772Z,100.00
2022-10-22T08:25:04.372Z,100.00
2022-10-22T08:26:05.867Z,100.00
2022-10-22T08:27:07.267Z,100.00
2022-10-22T08:28:08.677Z,100.00
2022-10-22T08:29:10.088Z,100.00
2022-10-22T08:30:12.028Z,100.00
2022-10-22T08:31:13.422Z,100.00
2022-10-22T08:32:15.154Z,100.00
2022-10-22T08:33:16.613Z,100.00
2022-10-22T08:34:18.003Z,100.00
2022-10-22T08:35:19.403Z,100.00
2022-10-22T08:36:20.820Z,100.00
2022-10-22T08:37:22.249Z,100.00
2022-10-22T08:38:23.680Z,100.00
2022-10-22T08:39:25.116Z,100.00
2022-10-22T08:40:34.346Z,100.00
2022-10-22T08:41:39.819Z,100.00
2022-10-22T08:43:00.397Z,100.00
2022-10-22T08:44:08.089Z,100.00
2022-10-22T08:45:09.498Z,100.00
2022-10-22T08:46:22.809Z,100.00
2022-10-22T08:47:40.979Z,100.00
2022-10-22T08:48:50.863Z,100.00
2022-10-22T08:49:53.319Z,100.00
2022-10-22T08:50:56.495Z,100.00
2022-10-22T08:51:58.416Z,100.00
2022-10-22T08:53:03.074Z,100.00
2022-10-22T08:54:13.382Z,100.00
2022-10-22T08:55:15.330Z,100.00
2022-10-22T08:56:16.791Z,100.00
2022-10-22T08:57:24.362Z,100.00
2022-10-22T08:58:34.419Z,100.00
2022-10-22T08:59:39.475Z,100.00
2022-10-22T09:00:44.618Z,100.00
2022-10-22T09:01:47.145Z,100.00
2022-10-22T09:02:51.721Z,100.00
2022-10-22T09:03:58.958Z,100.00
2022-10-22T09:05:26.425Z,100.00
2022-10-22T09:06:29.195Z,100.00
2022-10-22T09:07:30.621Z,100.00
2022-10-22T09:08:32.196Z,100.00
2022-10-22T09:09:35.780Z,100.00
2022-10-22T09:10:38.468Z,100.00
2022-10-22T09:11:40.515Z,100.00
2022-10-22T09:12:41.941Z,100.00
2022-10-22T09:13:44.641Z,100.00
2022-10-22T09:14:46.033Z,100.00
2022-10-22T09:15:51.099Z,100.00
2022-10-22T09:17:05.330Z,100.00
2022-10-22T09:18:06.707Z,100.00
2022-10-22T09:19:26.720Z,100.00
2022-10-22T09:20:32.186Z,100.00
2022-10-22T09:21:33.548Z,100.00
2022-10-22T09:22:39.886Z,100.00
2022-10-22T09:24:02.647Z,100.00
2022-10-22T09:25:22.361Z,100.00
2022-10-22T09:26:25.236Z,100.00
2022-10-22T09:27:28.004Z,100.00
2022-10-22T09:28:29.398Z,100.00
2022-10-22T09:29:32.837Z,100.00
2022-10-22T09:30:35.708Z,100.00
2022-10-22T09:31:37.096Z,100.00
2022-10-22T09:32:38.796Z,100.00
2022-10-22T09:33:41.635Z,100.00
2022-10-22T09:34:46.448Z,100.00
2022-10-22T09:35:53.036Z,100.00
2022-10-22T09:36:58.760Z,100.00
2022-10-22T09:38:06.135Z,100.00
2022-10-22T09:39:21.846Z,100.00
2022-10-22T09:40:23.544Z,100.00
2022-10-22T09:41:26.847Z,100.00
2022-10-22T09:42:28.263Z,100.00
2022-10-22T09:43:29.655Z,100.00
2022-10-22T09:44:33.288Z,100.00
2022-10-22T09:45:34.682Z,100.00
2022-10-22T09:46:38.708Z,100.00
2022-10-22T09:47:43.597Z,100.00
2022-10-22T09:49:02.419Z,100.00
2022-10-22T09:50:22.104Z,100.00
2022-10-22T09:51:25.109Z,100.00
2022-10-22T09:52:30.331Z,100.00
2022-10-22T09:53:36.376Z,100.00
2022-10-22T09:54:39.787Z,100.00
2022-10-22T09:55:42.860Z,100.00
2022-10-22T09:56:47.976Z,100.00
2022-10-22T09:57:56.208Z,100.00
2022-10-22T09:58:57.809Z,100.00
2022-10-22T09:59:59.184Z,100.00
2022-10-22T10:01:01.433Z,100.00
2022-10-22T10:02:19.665Z,100.00
2022-10-22T10:03:31.929Z,100.00
2022-10-22T10:04:34.294Z,100.00
2022-10-22T10:05:35.746Z,100.00
2022-10-22T10:06:37.960Z,100.00
2022-10-22T10:07:39.733Z,100.00
2022-10-22T10:08:41.479Z,100.00
2022-10-22T10:09:42.954Z,100.00
2022-10-22T10:10:56.476Z,100.00
2022-10-22T10:12:06.892Z,100.00
2022-10-22T10:13:27.142Z,100.00
2022-10-22T10:14:34.612Z,100.00
2022-10-22T10:15:40.547Z,100.00
2022-10-22T10:16:41.907Z,100.00
2022-10-22T10:17:48.433Z,100.00
2022-10-22T10:19:05.624Z,100.00
2022-10-22T10:20:28.274Z,100.00
2022-10-22T10:21:35.534Z,100.00
2022-10-22T10:22:44.582Z,100.00
2022-10-22T10:23:54.435Z,100.00
2022-10-22T10:24:55.855Z,100.00
2022-10-22T10:26:03.255Z,100.00
2022-10-22T10:27:23.386Z,100.00
2022-10-22T10:28:35.001Z,100.00
2022-10-22T10:29:42.470Z,100.00
2022-10-22T10:31:01.970Z,100.00
2022-10-22T10:32:24.311Z,100.00
2022-10-22T10:33:44.680Z,100.00
2022-10-22T10:34:48.930Z,100.00
2022-10-22T10:35:58.158Z,100.00
2022-10-22T10:37:05.552Z,100.00
2022-10-22T10:38:28.790Z,100.00
2022-10-22T10:39:38.602Z,100.00
2022-10-22T10:40:42.772Z,100.00
2022-10-22T10:41:49.990Z,100.00
2022-10-22T10:43:06.945Z,100.00
2022-10-22T10:44:14.095Z,100.00
2022-10-22T10:45:24.390Z,100.00
2022-10-22T10:46:30.284Z,100.00
2022-10-22T10:47:45.935Z,100.00
2022-10-22T10:48:53.404Z,100.00
2022-10-22T10:50:02.248Z,100.00
2022-10-22T10:51:26.737Z,100.00
2022-10-22T10:52:36.309Z,100.00
2022-10-22T10:53:52.984Z,100.00
2022-10-22T10:54:57.111Z,100.00
2022-10-22T10:55:58.498Z,100.00
2022-10-22T10:57:12.245Z,100.00
2022-10-22T10:58:34.128Z,100.00
2022-10-22T10:59:41.138Z,100.00
2022-10-22T11:01:03.746Z,100.00
2022-10-22T11:02:23.610Z,100.00
2022-10-22T11:03:36.908Z,100.00
2022-10-22T11:04:57.022Z,100.00
2022-10-22T11:06:07.553Z,100.00
2022-10-22T11:08:24.714Z,100.00
2022-10-22T11:09:29.858Z,100.00
2022-10-22T11:10:39.602Z,100.00
2022-10-22T11:11:45.337Z,100.00
2022-10-22T11:12:48.671Z,100.00
2022-10-22T11:13:57.154Z,100.00
2022-10-22T11:14:58.518Z,100.00
2022-10-22T11:16:02.788Z,100.00
2022-10-22T11:17:06.301Z,100.00
2022-10-22T11:18:40.254Z,100.00
2022-10-22T11:19:59.246Z,100.00
2022-10-22T11:21:06.201Z,100.00
2022-10-22T11:22:13.068Z,100.00
2022-10-22T11:23:22.447Z,100.00
2022-10-22T11:24:33.301Z,100.00
2022-10-22T11:25:38.489Z,100.00
2022-10-22T11:26:54.321Z,100.00
2022-10-22T11:28:16.921Z,100.00
2022-10-22T11:29:22.947Z,100.00
2022-10-22T11:30:25.877Z,100.00
2022-10-22T11:31:27.921Z,100.00
2022-10-22T11:32:29.959Z,100.00
2022-10-22T11:33:37.840Z,100.00
2022-10-22T11:34:44.485Z,100.00
2022-10-22T11:35:47.163Z,100.00
2022-10-22T11:36:49.360Z,100.00
2022-10-22T11:37:51.516Z,100.00
2022-10-22T11:38:53.177Z,100.00
2022-10-22T11:39:56.860Z,100.00
2022-10-22T11:40:58.291Z,100.00
2022-10-22T11:42:02.051Z,100.00
2022-10-22T11:43:05.251Z,100.00
2022-10-22T11:44:09.642Z,100.00
2022-10-22T11:45:13.793Z,100.00
2022-10-22T11:46:15.149Z,100.00
2022-10-22T11:47:23.856Z,100.00
2022-10-22T11:48:28.109Z,100.00
2022-10-22T11:49:46.180Z,100.00
2022-10-22T11:50:51.797Z,100.00
2022-10-22T11:52:06.207Z,100.00
2022-10-22T11:54:28.497Z,100.00
2022-10-22T11:55:32.882Z,100.00
2022-10-22T11:56:38.380Z,100.00
2022-10-22T11:57:42.185Z,100.00
2022-10-22T11:58:44.315Z,100.00
2022-10-22T11:59:51.840Z,100.00
2022-10-22T12:00:53.350Z,100.00
2022-10-22T12:01:55.436Z,100.00
2022-10-22T12:03:04.462Z,100.00
2022-10-22T12:04:05.880Z,100.00
2022-10-22T12:05:22.341Z,100.00
2022-10-22T12:06:25.163Z,100.00
2022-10-22T12:07:31.743Z,100.00
2022-10-22T12:08:33.900Z,100.00
2022-10-22T12:09:40.426Z,100.00
2022-10-22T12:11:08.276Z,100.00
2022-10-22T12:12:14.173Z,100.00
2022-10-22T12:13:21.464Z,100.00
2022-10-22T12:14:33.786Z,100.00
2022-10-22T12:15:46.037Z,100.00
2022-10-22T12:16:57.567Z,100.00
2022-10-22T12:18:00.039Z,100.00
2022-10-22T12:19:06.966Z,100.00
2022-10-22T12:20:12.367Z,100.00
2022-10-22T12:21:14.391Z,100.00
2022-10-22T12:22:15.802Z,100.00
2022-10-22T12:23:17.319Z,100.00
2022-10-22T12:24:20.183Z,100.00
2022-10-22T12:25:25.695Z,100.00
2022-10-22T12:26:28.544Z,100.00
2022-10-22T12:27:37.677Z,100.00
2022-10-22T12:28:39.747Z,100.00
2022-10-22T12:29:41.160Z,100.00
2022-10-22T12:30:42.613Z,100.00
2022-10-22T12:31:45.240Z,100.00
2022-10-22T12:32:46.694Z,100.00
2022-10-22T12:33:48.075Z,100.00
2022-10-22T12:34:52.736Z,100.00
2022-10-22T12:35:54.896Z,100.00
2022-10-22T12:36:56.283Z,100.00
2022-10-22T12:38:00.919Z,100.00
2022-10-22T12:39:03.924Z,100.00
2022-10-22T12:40:20.606Z,100.00
2022-10-22T12:41:22.123Z,100.00
2022-10-22T12:42:23.525Z,100.00
2022-10-22T12:43:26.790Z,100.00
2022-10-22T12:44:28.243Z,100.00
2022-10-22T12:45:30.595Z,100.00
2022-10-22T12:46:33.709Z,100.00
2022-10-22T12:47:35.117Z,100.00
2022-10-22T12:48:38.669Z,100.00
2022-10-22T12:49:42.165Z,100.00
2022-10-22T12:50:45.362Z,100.00
2022-10-22T12:51:47.548Z,100.00
2022-10-22T12:52:49.193Z,100.00
2022-10-22T12:53:52.451Z,100.00
2022-10-22T12:54:53.973Z,100.00
2022-10-22T12:55:57.558Z,100.00
2022-10-22T12:56:59.211Z,100.00
2022-10-22T12:58:04.503Z,100.00
2022-10-22T12:59:21.175Z,100.00
2022-10-22T13:00:24.383Z,100.00
2022-10-22T13:01:32.074Z,100.00
2022-10-22T13:02:33.484Z,100.00
2022-10-22T13:03:41.785Z,100.00
2022-10-22T13:05:03.133Z,100.00
2022-10-22T13:06:19.575Z,100.00
2022-10-22T13:07:22.198Z,100.00
2022-10-22T13:08:27.134Z,100.00
2022-10-22T13:09:37.262Z,100.00
2022-10-22T13:10:48.885Z,100.00
2022-10-22T13:11:54.733Z,100.00
2022-10-22T13:12:57.521Z,100.00
2022-10-22T13:14:02.926Z,100.00
2022-10-22T13:15:21.363Z,100.00
2022-10-22T13:16:23.994Z,100.00
2022-10-22T13:17:41.619Z,100.00
2022-10-22T13:18:44.054Z,100.00
2022-10-22T13:19:51.323Z,100.00
2022-10-22T13:20:56.813Z,100.00
2022-10-22T13:21:58.239Z,100.00
2022-10-22T13:23:03.688Z,100.00
2022-10-22T13:24:21.931Z,100.00
2022-10-22T13:25:28.630Z,100.00
2022-10-22T13:26:31.625Z,100.00
2022-10-22T13:27:33.047Z,100.00
2022-10-22T13:28:34.467Z,100.00